sensor_id;sensor_type;location;lat;lon;timestamp;P1;durP1;ratioP1;P2;durP2;ratioP2
11960;SDS011;6040;49.358;11.140;2023-03-01T00:01:33;14.80;;;8.67;;
11960;SDS011;6040;49.358;11.140;2023-03-01T00:04:01;16.60;;;8.30;;
11960;SDS011;6040;49.358;11.140;2023-03-01T00:06:28;12.77;;;8.13;;
11960;SDS011;6040;49.358;11.140;2023-03-01T00:08:56;14.23;;;8.13;;
11960;SDS011;6040;49.358;11.140;2023-03-01T00:11:23;16.93;;;9.17;;
11960;SDS011;6040;49.358;11.140;2023-03-01T00:13:51;14.10;;;9.10;;
11960;SDS011;6040;49.358;11.140;2023-03-01T00:16:21;16.83;;;9.10;;
11960;SDS011;6040;49.358;11.140;2023-03-01T00:18:49;14.40;;;8.67;;
11960;SDS011;6040;49.358;11.140;2023-03-01T00:21:18;13.73;;;8.20;;
11960;SDS011;6040;49.358;11.140;2023-03-01T00:23:46;18.27;;;10.07;;
11960;SDS011;6040;49.358;11.140;2023-03-01T00:26:14;16.13;;;9.80;;
11960;SDS011;6040;49.358;11.140;2023-03-01T00:28:42;17.70;;;9.60;;
11960;SDS011;6040;49.358;11.140;2023-03-01T00:31:10;15.63;;;9.23;;
11960;SDS011;6040;49.358;11.140;2023-03-01T00:33:38;15.57;;;8.80;;
11960;SDS011;6040;49.358;11.140;2023-03-01T00:36:06;13.93;;;8.10;;
11960;SDS011;6040;49.358;11.140;2023-03-01T00:38:35;15.53;;;9.90;;
11960;SDS011;6040;49.358;11.140;2023-03-01T00:41:03;14.67;;;8.63;;
11960;SDS011;6040;49.358;11.140;2023-03-01T00:43:31;16.20;;;9.30;;
11960;SDS011;6040;49.358;11.140;2023-03-01T00:46:01;16.43;;;9.17;;
11960;SDS011;6040;49.358;11.140;2023-03-01T00:48:28;16.17;;;9.27;;
11960;SDS011;6040;49.358;11.140;2023-03-01T00:50:55;16.57;;;9.40;;
11960;SDS011;6040;49.358;11.140;2023-03-01T00:53:22;15.13;;;8.23;;
11960;SDS011;6040;49.358;11.140;2023-03-01T00:55:50;16.37;;;9.53;;
11960;SDS011;6040;49.358;11.140;2023-03-01T00:58:17;16.90;;;9.20;;
11960;SDS011;6040;49.358;11.140;2023-03-01T01:00:44;15.50;;;8.37;;
11960;SDS011;6040;49.358;11.140;2023-03-01T01:03:11;15.60;;;8.93;;
11960;SDS011;6040;49.358;11.140;2023-03-01T01:05:37;20.97;;;10.33;;
11960;SDS011;6040;49.358;11.140;2023-03-01T01:08:04;16.63;;;9.20;;
11960;SDS011;6040;49.358;11.140;2023-03-01T01:10:33;15.43;;;9.23;;
11960;SDS011;6040;49.358;11.140;2023-03-01T01:13:01;15.90;;;9.23;;
11960;SDS011;6040;49.358;11.140;2023-03-01T01:15:28;15.13;;;9.50;;
11960;SDS011;6040;49.358;11.140;2023-03-01T01:17:55;15.57;;;8.93;;
11960;SDS011;6040;49.358;11.140;2023-03-01T01:20:22;16.17;;;9.80;;
11960;SDS011;6040;49.358;11.140;2023-03-01T01:22:49;15.83;;;9.73;;
11960;SDS011;6040;49.358;11.140;2023-03-01T01:25:16;18.10;;;9.63;;
11960;SDS011;6040;49.358;11.140;2023-03-01T01:27:43;14.77;;;8.73;;
11960;SDS011;6040;49.358;11.140;2023-03-01T01:30:12;15.40;;;9.20;;
11960;SDS011;6040;49.358;11.140;2023-03-01T01:32:39;15.50;;;9.27;;
11960;SDS011;6040;49.358;11.140;2023-03-01T01:35:06;17.93;;;9.57;;
11960;SDS011;6040;49.358;11.140;2023-03-01T01:37:33;14.83;;;8.93;;
11960;SDS011;6040;49.358;11.140;2023-03-01T01:40:00;15.93;;;9.30;;
11960;SDS011;6040;49.358;11.140;2023-03-01T01:42:32;14.23;;;9.00;;
11960;SDS011;6040;49.358;11.140;2023-03-01T01:47:58;16.20;;;9.07;;
11960;SDS011;6040;49.358;11.140;2023-03-01T01:50:29;18.37;;;10.20;;
11960;SDS011;6040;49.358;11.140;2023-03-01T01:53:02;15.40;;;8.97;;
11960;SDS011;6040;49.358;11.140;2023-03-01T01:55:36;16.00;;;9.30;;
11960;SDS011;6040;49.358;11.140;2023-03-01T01:58:06;14.43;;;9.10;;
11960;SDS011;6040;49.358;11.140;2023-03-01T02:00:35;13.37;;;8.63;;
11960;SDS011;6040;49.358;11.140;2023-03-01T02:03:05;17.57;;;9.13;;
11960;SDS011;6040;49.358;11.140;2023-03-01T02:05:37;15.27;;;9.60;;
11960;SDS011;6040;49.358;11.140;2023-03-01T02:08:09;16.87;;;9.13;;
11960;SDS011;6040;49.358;11.140;2023-03-01T02:10:37;17.63;;;9.47;;
11960;SDS011;6040;49.358;11.140;2023-03-01T02:13:05;16.70;;;8.80;;
11960;SDS011;6040;49.358;11.140;2023-03-01T02:15:33;15.43;;;8.47;;
11960;SDS011;6040;49.358;11.140;2023-03-01T02:18:04;17.23;;;9.73;;
11960;SDS011;6040;49.358;11.140;2023-03-01T02:20:33;13.63;;;8.40;;
11960;SDS011;6040;49.358;11.140;2023-03-01T02:23:03;18.13;;;9.67;;
11960;SDS011;6040;49.358;11.140;2023-03-01T02:25:34;15.10;;;9.13;;
11960;SDS011;6040;49.358;11.140;2023-03-01T02:28:08;16.43;;;8.93;;
11960;SDS011;6040;49.358;11.140;2023-03-01T02:30:39;17.30;;;9.67;;
11960;SDS011;6040;49.358;11.140;2023-03-01T02:33:27;18.07;;;9.73;;
11960;SDS011;6040;49.358;11.140;2023-03-01T02:35:53;18.57;;;9.63;;
11960;SDS011;6040;49.358;11.140;2023-03-01T02:38:21;17.03;;;10.13;;
11960;SDS011;6040;49.358;11.140;2023-03-01T02:40:50;21.03;;;9.60;;
11960;SDS011;6040;49.358;11.140;2023-03-01T02:43:18;15.23;;;9.20;;
11960;SDS011;6040;49.358;11.140;2023-03-01T02:45:50;19.03;;;9.93;;
11960;SDS011;6040;49.358;11.140;2023-03-01T02:48:18;16.43;;;10.27;;
11960;SDS011;6040;49.358;11.140;2023-03-01T02:50:50;19.13;;;10.07;;
11960;SDS011;6040;49.358;11.140;2023-03-01T02:53:27;17.57;;;10.10;;
11960;SDS011;6040;49.358;11.140;2023-03-01T02:56:01;17.13;;;9.80;;
11960;SDS011;6040;49.358;11.140;2023-03-01T02:58:28;16.93;;;10.37;;
11960;SDS011;6040;49.358;11.140;2023-03-01T03:00:56;18.03;;;10.17;;
11960;SDS011;6040;49.358;11.140;2023-03-01T03:03:25;15.23;;;9.47;;
11960;SDS011;6040;49.358;11.140;2023-03-01T03:05:52;17.87;;;10.33;;
11960;SDS011;6040;49.358;11.140;2023-03-01T03:08:19;16.93;;;9.47;;
11960;SDS011;6040;49.358;11.140;2023-03-01T03:10:48;18.40;;;9.97;;
11960;SDS011;6040;49.358;11.140;2023-03-01T03:13:15;19.17;;;9.57;;
11960;SDS011;6040;49.358;11.140;2023-03-01T03:15:44;16.83;;;9.27;;
11960;SDS011;6040;49.358;11.140;2023-03-01T03:18:13;18.80;;;10.10;;
11960;SDS011;6040;49.358;11.140;2023-03-01T03:20:41;18.23;;;11.03;;
11960;SDS011;6040;49.358;11.140;2023-03-01T03:23:09;16.67;;;9.63;;
11960;SDS011;6040;49.358;11.140;2023-03-01T03:25:37;17.10;;;9.57;;
11960;SDS011;6040;49.358;11.140;2023-03-01T03:28:04;17.43;;;9.20;;
11960;SDS011;6040;49.358;11.140;2023-03-01T03:30:35;19.27;;;10.37;;
11960;SDS011;6040;49.358;11.140;2023-03-01T03:33:04;17.97;;;9.70;;
11960;SDS011;6040;49.358;11.140;2023-03-01T03:35:34;17.77;;;10.37;;
11960;SDS011;6040;49.358;11.140;2023-03-01T03:38:05;22.10;;;10.30;;
11960;SDS011;6040;49.358;11.140;2023-03-01T03:40:41;17.20;;;10.40;;
11960;SDS011;6040;49.358;11.140;2023-03-01T03:43:11;18.87;;;10.43;;
11960;SDS011;6040;49.358;11.140;2023-03-01T03:45:39;16.87;;;10.03;;
11960;SDS011;6040;49.358;11.140;2023-03-01T03:48:07;17.50;;;9.73;;
11960;SDS011;6040;49.358;11.140;2023-03-01T03:50:37;17.70;;;9.97;;
11960;SDS011;6040;49.358;11.140;2023-03-01T03:53:06;16.43;;;9.97;;
11960;SDS011;6040;49.358;11.140;2023-03-01T03:55:34;21.33;;;10.30;;
11960;SDS011;6040;49.358;11.140;2023-03-01T03:58:04;17.37;;;10.23;;
11960;SDS011;6040;49.358;11.140;2023-03-01T04:00:33;18.43;;;9.97;;
11960;SDS011;6040;49.358;11.140;2023-03-01T04:03:01;22.17;;;11.20;;
11960;SDS011;6040;49.358;11.140;2023-03-01T04:05:28;13.77;;;9.77;;
11960;SDS011;6040;49.358;11.140;2023-03-01T04:07:57;19.10;;;10.47;;
11960;SDS011;6040;49.358;11.140;2023-03-01T04:10:27;22.45;;;15.35;;
11960;SDS011;6040;49.358;11.140;2023-03-01T04:12:55;19.40;;;11.03;;
11960;SDS011;6040;49.358;11.140;2023-03-01T04:15:22;19.27;;;11.80;;
11960;SDS011;6040;49.358;11.140;2023-03-01T04:17:50;15.03;;;9.93;;
11960;SDS011;6040;49.358;11.140;2023-03-01T04:20:19;17.67;;;9.67;;
11960;SDS011;6040;49.358;11.140;2023-03-01T04:22:50;16.67;;;10.00;;
11960;SDS011;6040;49.358;11.140;2023-03-01T04:25:19;18.70;;;10.13;;
11960;SDS011;6040;49.358;11.140;2023-03-01T04:27:46;17.80;;;10.53;;
11960;SDS011;6040;49.358;11.140;2023-03-01T04:30:13;19.40;;;10.03;;
11960;SDS011;6040;49.358;11.140;2023-03-01T04:32:40;20.30;;;10.10;;
11960;SDS011;6040;49.358;11.140;2023-03-01T04:35:07;16.60;;;9.90;;
11960;SDS011;6040;49.358;11.140;2023-03-01T04:37:34;19.70;;;11.10;;
11960;SDS011;6040;49.358;11.140;2023-03-01T04:40:02;16.40;;;9.53;;
11960;SDS011;6040;49.358;11.140;2023-03-01T04:42:39;16.67;;;9.67;;
11960;SDS011;6040;49.358;11.140;2023-03-01T04:45:06;19.83;;;10.33;;
11960;SDS011;6040;49.358;11.140;2023-03-01T04:47:38;15.93;;;9.27;;
11960;SDS011;6040;49.358;11.140;2023-03-01T04:50:06;17.83;;;10.03;;
11960;SDS011;6040;49.358;11.140;2023-03-01T04:52:33;14.37;;;9.03;;
11960;SDS011;6040;49.358;11.140;2023-03-01T04:55:01;16.80;;;8.93;;
11960;SDS011;6040;49.358;11.140;2023-03-01T04:57:28;17.60;;;10.70;;
11960;SDS011;6040;49.358;11.140;2023-03-01T04:59:57;17.60;;;9.57;;
11960;SDS011;6040;49.358;11.140;2023-03-01T05:02:24;16.73;;;9.47;;
11960;SDS011;6040;49.358;11.140;2023-03-01T05:04:51;15.60;;;9.53;;
11960;SDS011;6040;49.358;11.140;2023-03-01T05:07:22;16.67;;;8.57;;
11960;SDS011;6040;49.358;11.140;2023-03-01T05:09:51;18.17;;;10.17;;
11960;SDS011;6040;49.358;11.140;2023-03-01T05:12:19;16.27;;;9.53;;
11960;SDS011;6040;49.358;11.140;2023-03-01T05:14:46;16.40;;;9.90;;
11960;SDS011;6040;49.358;11.140;2023-03-01T05:17:14;18.00;;;10.10;;
11960;SDS011;6040;49.358;11.140;2023-03-01T05:19:41;18.90;;;10.47;;
11960;SDS011;6040;49.358;11.140;2023-03-01T05:22:08;18.07;;;8.97;;
11960;SDS011;6040;49.358;11.140;2023-03-01T05:24:35;19.60;;;10.93;;
11960;SDS011;6040;49.358;11.140;2023-03-01T05:27:03;18.83;;;10.07;;
11960;SDS011;6040;49.358;11.140;2023-03-01T05:29:31;18.03;;;10.03;;
11960;SDS011;6040;49.358;11.140;2023-03-01T05:32:00;17.43;;;10.80;;
11960;SDS011;6040;49.358;11.140;2023-03-01T05:34:30;18.50;;;10.23;;
11960;SDS011;6040;49.358;11.140;2023-03-01T05:36:58;15.97;;;9.70;;
11960;SDS011;6040;49.358;11.140;2023-03-01T05:39:26;19.23;;;10.23;;
11960;SDS011;6040;49.358;11.140;2023-03-01T05:41:55;17.90;;;9.07;;
11960;SDS011;6040;49.358;11.140;2023-03-01T05:44:23;16.80;;;9.47;;
11960;SDS011;6040;49.358;11.140;2023-03-01T05:46:51;18.50;;;10.37;;
11960;SDS011;6040;49.358;11.140;2023-03-01T05:49:18;18.03;;;10.37;;
11960;SDS011;6040;49.358;11.140;2023-03-01T05:51:48;18.53;;;10.37;;
11960;SDS011;6040;49.358;11.140;2023-03-01T05:54:16;16.47;;;9.87;;
11960;SDS011;6040;49.358;11.140;2023-03-01T05:56:44;19.57;;;9.80;;
11960;SDS011;6040;49.358;11.140;2023-03-01T05:59:12;23.97;;;10.13;;
11960;SDS011;6040;49.358;11.140;2023-03-01T06:01:40;18.30;;;9.67;;
11960;SDS011;6040;49.358;11.140;2023-03-01T06:04:06;19.80;;;10.37;;
11960;SDS011;6040;49.358;11.140;2023-03-01T06:06:36;17.40;;;9.90;;
11960;SDS011;6040;49.358;11.140;2023-03-01T06:09:05;17.50;;;10.47;;
11960;SDS011;6040;49.358;11.140;2023-03-01T06:11:35;17.60;;;9.37;;
11960;SDS011;6040;49.358;11.140;2023-03-01T06:14:02;19.50;;;10.47;;
11960;SDS011;6040;49.358;11.140;2023-03-01T06:16:29;21.63;;;11.33;;
11960;SDS011;6040;49.358;11.140;2023-03-01T06:18:56;21.50;;;11.03;;
11960;SDS011;6040;49.358;11.140;2023-03-01T06:21:22;17.57;;;10.20;;
11960;SDS011;6040;49.358;11.140;2023-03-01T06:23:49;16.60;;;10.17;;
11960;SDS011;6040;49.358;11.140;2023-03-01T06:26:18;16.73;;;10.23;;
11960;SDS011;6040;49.358;11.140;2023-03-01T06:28:45;18.67;;;10.87;;
11960;SDS011;6040;49.358;11.140;2023-03-01T06:31:12;23.83;;;11.67;;
11960;SDS011;6040;49.358;11.140;2023-03-01T06:33:39;19.13;;;10.23;;
11960;SDS011;6040;49.358;11.140;2023-03-01T06:36:06;18.50;;;9.93;;
11960;SDS011;6040;49.358;11.140;2023-03-01T06:38:37;18.47;;;10.67;;
11960;SDS011;6040;49.358;11.140;2023-03-01T06:41:05;15.20;;;9.83;;
11960;SDS011;6040;49.358;11.140;2023-03-01T06:43:34;16.67;;;10.03;;
11960;SDS011;6040;49.358;11.140;2023-03-01T06:46:03;18.43;;;10.63;;
11960;SDS011;6040;49.358;11.140;2023-03-01T06:48:30;16.07;;;10.33;;
11960;SDS011;6040;49.358;11.140;2023-03-01T06:50:57;16.77;;;10.60;;
11960;SDS011;6040;49.358;11.140;2023-03-01T06:53:25;15.07;;;10.23;;
11960;SDS011;6040;49.358;11.140;2023-03-01T06:55:53;16.87;;;10.47;;
11960;SDS011;6040;49.358;11.140;2023-03-01T06:58:21;16.20;;;10.07;;
11960;SDS011;6040;49.358;11.140;2023-03-01T07:00:49;16.63;;;10.27;;
11960;SDS011;6040;49.358;11.140;2023-03-01T07:03:16;15.23;;;10.13;;
11960;SDS011;6040;49.358;11.140;2023-03-01T07:05:43;16.27;;;10.87;;
11960;SDS011;6040;49.358;11.140;2023-03-01T07:08:10;19.10;;;11.10;;
11960;SDS011;6040;49.358;11.140;2023-03-01T07:10:37;18.10;;;11.73;;
11960;SDS011;6040;49.358;11.140;2023-03-01T07:13:04;15.27;;;10.63;;
11960;SDS011;6040;49.358;11.140;2023-03-01T07:15:32;18.83;;;11.13;;
11960;SDS011;6040;49.358;11.140;2023-03-01T07:18:00;19.13;;;12.13;;
11960;SDS011;6040;49.358;11.140;2023-03-01T07:20:27;18.80;;;12.03;;
11960;SDS011;6040;49.358;11.140;2023-03-01T07:22:54;19.33;;;12.07;;
11960;SDS011;6040;49.358;11.140;2023-03-01T07:25:23;17.83;;;11.17;;
11960;SDS011;6040;49.358;11.140;2023-03-01T07:27:50;21.17;;;12.23;;
11960;SDS011;6040;49.358;11.140;2023-03-01T07:30:17;15.93;;;11.33;;
11960;SDS011;6040;49.358;11.140;2023-03-01T07:32:44;19.67;;;13.07;;
11960;SDS011;6040;49.358;11.140;2023-03-01T07:35:13;20.23;;;12.40;;
11960;SDS011;6040;49.358;11.140;2023-03-01T07:37:40;19.00;;;11.97;;
11960;SDS011;6040;49.358;11.140;2023-03-01T07:40:07;18.80;;;12.47;;
11960;SDS011;6040;49.358;11.140;2023-03-01T07:42:35;17.93;;;12.00;;
11960;SDS011;6040;49.358;11.140;2023-03-01T07:45:02;19.73;;;12.57;;
11960;SDS011;6040;49.358;11.140;2023-03-01T07:47:30;17.90;;;11.53;;
11960;SDS011;6040;49.358;11.140;2023-03-01T07:49:57;22.03;;;13.10;;
11960;SDS011;6040;49.358;11.140;2023-03-01T07:52:25;18.53;;;12.03;;
11960;SDS011;6040;49.358;11.140;2023-03-01T07:54:52;19.00;;;12.77;;
11960;SDS011;6040;49.358;11.140;2023-03-01T07:57:19;20.80;;;13.10;;
11960;SDS011;6040;49.358;11.140;2023-03-01T07:59:46;20.40;;;13.10;;
11960;SDS011;6040;49.358;11.140;2023-03-01T08:02:13;19.60;;;12.43;;
11960;SDS011;6040;49.358;11.140;2023-03-01T08:04:40;16.87;;;11.47;;
11960;SDS011;6040;49.358;11.140;2023-03-01T08:07:07;19.77;;;11.90;;
11960;SDS011;6040;49.358;11.140;2023-03-01T08:09:35;22.20;;;12.33;;
11960;SDS011;6040;49.358;11.140;2023-03-01T08:12:02;19.17;;;12.33;;
11960;SDS011;6040;49.358;11.140;2023-03-01T08:14:30;15.73;;;9.20;;
11960;SDS011;6040;49.358;11.140;2023-03-01T08:16:57;18.20;;;11.90;;
11960;SDS011;6040;49.358;11.140;2023-03-01T08:19:24;14.20;;;8.67;;
11960;SDS011;6040;49.358;11.140;2023-03-01T08:21:53;19.77;;;11.83;;
11960;SDS011;6040;49.358;11.140;2023-03-01T08:24:19;18.63;;;11.73;;
11960;SDS011;6040;49.358;11.140;2023-03-01T08:26:49;15.93;;;11.57;;
11960;SDS011;6040;49.358;11.140;2023-03-01T08:29:16;15.80;;;11.33;;
11960;SDS011;6040;49.358;11.140;2023-03-01T08:31:42;18.27;;;11.13;;
11960;SDS011;6040;49.358;11.140;2023-03-01T08:34:11;17.47;;;11.53;;
11960;SDS011;6040;49.358;11.140;2023-03-01T08:36:39;17.80;;;11.90;;
11960;SDS011;6040;49.358;11.140;2023-03-01T08:39:07;19.57;;;12.23;;
11960;SDS011;6040;49.358;11.140;2023-03-01T08:41:35;17.83;;;11.60;;
11960;SDS011;6040;49.358;11.140;2023-03-01T08:44:04;18.10;;;11.10;;
11960;SDS011;6040;49.358;11.140;2023-03-01T08:46:32;20.37;;;10.93;;
11960;SDS011;6040;49.358;11.140;2023-03-01T08:49:02;16.37;;;11.57;;
11960;SDS011;6040;49.358;11.140;2023-03-01T08:51:30;17.23;;;10.83;;
11960;SDS011;6040;49.358;11.140;2023-03-01T08:54:01;18.27;;;11.53;;
11960;SDS011;6040;49.358;11.140;2023-03-01T08:56:28;21.57;;;11.50;;
11960;SDS011;6040;49.358;11.140;2023-03-01T08:58:55;17.97;;;12.10;;
11960;SDS011;6040;49.358;11.140;2023-03-01T09:01:23;16.50;;;11.07;;
11960;SDS011;6040;49.358;11.140;2023-03-01T09:03:50;19.40;;;12.93;;
11960;SDS011;6040;49.358;11.140;2023-03-01T09:06:17;19.13;;;12.47;;
11960;SDS011;6040;49.358;11.140;2023-03-01T09:08:45;18.83;;;12.43;;
11960;SDS011;6040;49.358;11.140;2023-03-01T09:11:13;19.60;;;12.97;;
11960;SDS011;6040;49.358;11.140;2023-03-01T09:13:41;18.07;;;12.53;;
11960;SDS011;6040;49.358;11.140;2023-03-01T09:16:08;18.20;;;11.97;;
11960;SDS011;6040;49.358;11.140;2023-03-01T09:18:38;19.53;;;12.27;;
11960;SDS011;6040;49.358;11.140;2023-03-01T09:21:06;17.97;;;11.97;;
11960;SDS011;6040;49.358;11.140;2023-03-01T09:23:33;16.73;;;11.80;;
11960;SDS011;6040;49.358;11.140;2023-03-01T09:26:04;16.07;;;10.67;;
11960;SDS011;6040;49.358;11.140;2023-03-01T09:28:31;17.90;;;12.50;;
11960;SDS011;6040;49.358;11.140;2023-03-01T09:30:58;24.40;;;12.00;;
11960;SDS011;6040;49.358;11.140;2023-03-01T09:33:25;18.53;;;12.70;;
11960;SDS011;6040;49.358;11.140;2023-03-01T09:35:57;19.40;;;13.17;;
11960;SDS011;6040;49.358;11.140;2023-03-01T09:38:23;18.90;;;12.17;;
11960;SDS011;6040;49.358;11.140;2023-03-01T09:40:51;15.40;;;11.23;;
11960;SDS011;6040;49.358;11.140;2023-03-01T09:43:19;19.13;;;12.63;;
11960;SDS011;6040;49.358;11.140;2023-03-01T09:45:49;18.23;;;12.50;;
11960;SDS011;6040;49.358;11.140;2023-03-01T09:48:20;19.33;;;12.93;;
11960;SDS011;6040;49.358;11.140;2023-03-01T09:50:49;23.43;;;15.00;;
11960;SDS011;6040;49.358;11.140;2023-03-01T09:53:20;19.43;;;13.67;;
11960;SDS011;6040;49.358;11.140;2023-03-01T09:55:50;19.77;;;14.67;;
11960;SDS011;6040;49.358;11.140;2023-03-01T10:01:23;17.57;;;11.87;;
11960;SDS011;6040;49.358;11.140;2023-03-01T10:04:04;17.00;;;11.90;;
11960;SDS011;6040;49.358;11.140;2023-03-01T10:06:51;16.23;;;10.67;;
11960;SDS011;6040;49.358;11.140;2023-03-01T10:09:30;16.90;;;12.03;;
11960;SDS011;6040;49.358;11.140;2023-03-01T10:12:00;19.40;;;12.33;;
11960;SDS011;6040;49.358;11.140;2023-03-01T10:14:32;17.27;;;11.73;;
11960;SDS011;6040;49.358;11.140;2023-03-01T10:17:02;16.43;;;10.77;;
11960;SDS011;6040;49.358;11.140;2023-03-01T10:19:31;16.07;;;10.27;;
11960;SDS011;6040;49.358;11.140;2023-03-01T10:22:03;15.37;;;11.70;;
11960;SDS011;6040;49.358;11.140;2023-03-01T10:24:36;15.90;;;10.43;;
11960;SDS011;6040;49.358;11.140;2023-03-01T10:27:04;16.50;;;11.20;;
11960;SDS011;6040;49.358;11.140;2023-03-01T10:29:37;16.33;;;11.17;;
11960;SDS011;6040;49.358;11.140;2023-03-01T10:32:09;19.60;;;10.90;;
11960;SDS011;6040;49.358;11.140;2023-03-01T10:34:37;15.87;;;11.10;;
11960;SDS011;6040;49.358;11.140;2023-03-01T10:37:09;15.40;;;11.07;;
11960;SDS011;6040;49.358;11.140;2023-03-01T10:39:38;18.13;;;11.77;;
11960;SDS011;6040;49.358;11.140;2023-03-01T10:42:22;17.83;;;11.40;;
11960;SDS011;6040;49.358;11.140;2023-03-01T10:44:53;14.77;;;10.83;;
11960;SDS011;6040;49.358;11.140;2023-03-01T10:47:21;16.43;;;11.60;;
11960;SDS011;6040;49.358;11.140;2023-03-01T10:49:59;17.07;;;11.60;;
11960;SDS011;6040;49.358;11.140;2023-03-01T10:52:29;15.97;;;10.93;;
11960;SDS011;6040;49.358;11.140;2023-03-01T10:54:59;17.47;;;11.57;;
11960;SDS011;6040;49.358;11.140;2023-03-01T10:57:36;13.87;;;10.40;;
11960;SDS011;6040;49.358;11.140;2023-03-01T11:00:15;16.17;;;11.23;;
11960;SDS011;6040;49.358;11.140;2023-03-01T11:02:48;15.57;;;11.57;;
11960;SDS011;6040;49.358;11.140;2023-03-01T11:05:17;18.57;;;11.83;;
11960;SDS011;6040;49.358;11.140;2023-03-01T11:07:49;17.77;;;11.43;;
11960;SDS011;6040;49.358;11.140;2023-03-01T11:10:20;19.27;;;11.43;;
11960;SDS011;6040;49.358;11.140;2023-03-01T11:12:49;14.90;;;11.37;;
11960;SDS011;6040;49.358;11.140;2023-03-01T11:15:20;17.43;;;11.40;;
11960;SDS011;6040;49.358;11.140;2023-03-01T11:17:52;16.40;;;12.07;;
11960;SDS011;6040;49.358;11.140;2023-03-01T11:20:24;17.27;;;11.37;;
11960;SDS011;6040;49.358;11.140;2023-03-01T11:22:53;14.33;;;11.03;;
11960;SDS011;6040;49.358;11.140;2023-03-01T11:25:25;20.70;;;12.63;;
11960;SDS011;6040;49.358;11.140;2023-03-01T11:27:54;14.33;;;10.60;;
11960;SDS011;6040;49.358;11.140;2023-03-01T11:30:23;16.27;;;12.17;;
11960;SDS011;6040;49.358;11.140;2023-03-01T11:32:57;16.23;;;11.77;;
11960;SDS011;6040;49.358;11.140;2023-03-01T11:35:32;22.60;;;17.37;;
11960;SDS011;6040;49.358;11.140;2023-03-01T11:38:04;20.17;;;16.23;;
11960;SDS011;6040;49.358;11.140;2023-03-01T11:40:45;23.17;;;14.90;;
11960;SDS011;6040;49.358;11.140;2023-03-01T11:43:19;18.90;;;13.37;;
11960;SDS011;6040;49.358;11.140;2023-03-01T11:46:07;24.60;;;16.20;;
11960;SDS011;6040;49.358;11.140;2023-03-01T11:48:56;21.60;;;14.67;;
11960;SDS011;6040;49.358;11.140;2023-03-01T11:51:38;16.53;;;11.20;;
11960;SDS011;6040;49.358;11.140;2023-03-01T11:54:18;14.80;;;10.77;;
11960;SDS011;6040;49.358;11.140;2023-03-01T11:56:57;14.63;;;10.90;;
11960;SDS011;6040;49.358;11.140;2023-03-01T11:59:44;19.73;;;14.33;;
11960;SDS011;6040;49.358;11.140;2023-03-01T12:02:40;13.53;;;10.73;;
11960;SDS011;6040;49.358;11.140;2023-03-01T12:05:24;15.33;;;10.77;;
11960;SDS011;6040;49.358;11.140;2023-03-01T12:08:14;16.70;;;11.80;;
11960;SDS011;6040;49.358;11.140;2023-03-01T12:10:48;13.77;;;10.83;;
11960;SDS011;6040;49.358;11.140;2023-03-01T12:13:27;15.87;;;11.13;;
11960;SDS011;6040;49.358;11.140;2023-03-01T12:16:15;13.00;;;9.23;;
11960;SDS011;6040;49.358;11.140;2023-03-01T12:19:05;14.90;;;10.73;;
11960;SDS011;6040;49.358;11.140;2023-03-01T12:21:46;14.13;;;11.17;;
11960;SDS011;6040;49.358;11.140;2023-03-01T12:27:32;14.13;;;10.17;;
11960;SDS011;6040;49.358;11.140;2023-03-01T12:30:20;16.30;;;11.47;;
11960;SDS011;6040;49.358;11.140;2023-03-01T12:33:02;11.87;;;7.33;;
11960;SDS011;6040;49.358;11.140;2023-03-01T12:35:42;10.93;;;8.23;;
11960;SDS011;6040;49.358;11.140;2023-03-01T12:38:32;15.40;;;10.90;;
11960;SDS011;6040;49.358;11.140;2023-03-01T12:43:58;17.13;;;10.13;;
11960;SDS011;6040;49.358;11.140;2023-03-01T12:46:39;15.17;;;9.47;;
11960;SDS011;6040;49.358;11.140;2023-03-01T12:49:18;14.50;;;9.53;;
11960;SDS011;6040;49.358;11.140;2023-03-01T12:51:50;13.77;;;10.00;;
11960;SDS011;6040;49.358;11.140;2023-03-01T12:54:25;12.60;;;9.27;;
11960;SDS011;6040;49.358;11.140;2023-03-01T12:56:54;14.33;;;9.43;;
11960;SDS011;6040;49.358;11.140;2023-03-01T12:59:23;16.87;;;10.37;;
11960;SDS011;6040;49.358;11.140;2023-03-01T13:02:03;13.47;;;8.90;;
11960;SDS011;6040;49.358;11.140;2023-03-01T13:04:38;13.63;;;8.20;;
11960;SDS011;6040;49.358;11.140;2023-03-01T13:07:20;12.27;;;9.23;;
11960;SDS011;6040;49.358;11.140;2023-03-01T13:09:57;14.33;;;9.50;;
11960;SDS011;6040;49.358;11.140;2023-03-01T13:12:45;13.43;;;9.43;;
11960;SDS011;6040;49.358;11.140;2023-03-01T13:15:26;14.53;;;9.10;;
11960;SDS011;6040;49.358;11.140;2023-03-01T13:17:57;10.77;;;7.53;;
11960;SDS011;6040;49.358;11.140;2023-03-01T13:20:26;11.97;;;8.60;;
11960;SDS011;6040;49.358;11.140;2023-03-01T13:23:01;13.57;;;8.37;;
11960;SDS011;6040;49.358;11.140;2023-03-01T13:25:30;12.20;;;8.73;;
11960;SDS011;6040;49.358;11.140;2023-03-01T13:31:06;16.40;;;9.43;;
11960;SDS011;6040;49.358;11.140;2023-03-01T13:33:39;14.80;;;8.87;;
11960;SDS011;6040;49.358;11.140;2023-03-01T13:36:08;16.17;;;8.87;;
11960;SDS011;6040;49.358;11.140;2023-03-01T13:38:48;13.03;;;7.40;;
11960;SDS011;6040;49.358;11.140;2023-03-01T13:44:20;10.93;;;7.83;;
11960;SDS011;6040;49.358;11.140;2023-03-01T13:46:51;12.13;;;8.47;;
11960;SDS011;6040;49.358;11.140;2023-03-01T13:49:22;10.57;;;7.70;;
11960;SDS011;6040;49.358;11.140;2023-03-01T13:51:53;14.10;;;9.13;;
11960;SDS011;6040;49.358;11.140;2023-03-01T13:54:23;12.37;;;8.73;;
11960;SDS011;6040;49.358;11.140;2023-03-01T13:56:54;11.93;;;8.63;;
11960;SDS011;6040;49.358;11.140;2023-03-01T13:59:22;13.30;;;8.80;;
11960;SDS011;6040;49.358;11.140;2023-03-01T14:01:51;11.67;;;8.80;;
11960;SDS011;6040;49.358;11.140;2023-03-01T14:04:20;13.53;;;8.57;;
11960;SDS011;6040;49.358;11.140;2023-03-01T14:06:52;13.73;;;9.10;;
11960;SDS011;6040;49.358;11.140;2023-03-01T14:09:33;15.80;;;8.50;;
11960;SDS011;6040;49.358;11.140;2023-03-01T14:12:16;15.07;;;9.60;;
11960;SDS011;6040;49.358;11.140;2023-03-01T14:14:56;12.27;;;9.00;;
11960;SDS011;6040;49.358;11.140;2023-03-01T14:17:40;9.97;;;8.27;;
11960;SDS011;6040;49.358;11.140;2023-03-01T14:20:18;18.47;;;7.93;;
11960;SDS011;6040;49.358;11.140;2023-03-01T14:22:47;13.10;;;8.80;;
11960;SDS011;6040;49.358;11.140;2023-03-01T14:25:23;16.17;;;9.57;;
11960;SDS011;6040;49.358;11.140;2023-03-01T14:27:57;11.50;;;7.27;;
11960;SDS011;6040;49.358;11.140;2023-03-01T14:30:27;13.10;;;9.20;;
11960;SDS011;6040;49.358;11.140;2023-03-01T14:32:59;14.13;;;9.07;;
11960;SDS011;6040;49.358;11.140;2023-03-01T14:35:29;14.80;;;9.70;;
11960;SDS011;6040;49.358;11.140;2023-03-01T14:37:57;11.93;;;8.43;;
11960;SDS011;6040;49.358;11.140;2023-03-01T14:40:25;12.47;;;9.03;;
11960;SDS011;6040;49.358;11.140;2023-03-01T14:42:53;13.20;;;9.13;;
11960;SDS011;6040;49.358;11.140;2023-03-01T14:45:24;11.93;;;9.10;;
11960;SDS011;6040;49.358;11.140;2023-03-01T14:47:53;12.83;;;9.30;;
11960;SDS011;6040;49.358;11.140;2023-03-01T14:50:24;15.80;;;10.97;;
11960;SDS011;6040;49.358;11.140;2023-03-01T14:52:55;13.70;;;9.53;;
11960;SDS011;6040;49.358;11.140;2023-03-01T14:55:25;14.17;;;9.70;;
11960;SDS011;6040;49.358;11.140;2023-03-01T14:57:55;14.23;;;9.73;;
11960;SDS011;6040;49.358;11.140;2023-03-01T15:00:24;12.60;;;9.30;;
11960;SDS011;6040;49.358;11.140;2023-03-01T15:02:54;14.47;;;9.10;;
11960;SDS011;6040;49.358;11.140;2023-03-01T15:05:24;15.83;;;10.37;;